Time;durP1;ratioP1;P1;durP2;ratioP2;P2;SDS_P1;SDS_P2;PMS_P1;PMS_P2;Temp;Humidity;BMP_temperature;BMP_pressure;BME280_temperature;BME280_humidity;BME280_pressure;Samples;Min_cycle;Max_cycle;Signal;HPM_P1;HPM_P2
2023/04/28 00:03:05;;;;;;;48.88;6.63;;;;;;;21.73;41.54;101981.53;20997347;28;20453;-71
2023/04/28 00:13:07;;;;;;;11.95;3.67;;;;;;;21.58;41.58;101953.53;20991749;28;20475;-73
2023/04/28 00:23:08;;;;;;;8.07;3.28;;;;;;;21.80;41.76;101979.38;20993158;28;20098;-72
2023/04/28 00:33:09;;;;;;;17.67;4.07;;;;;;;21.77;42.08;101982.72;20993744;28;20426;-72
2023/04/28 00:43:11;;;;;;;8.68;3.17;;;;;;;21.81;41.86;102008.94;21000536;28;20040;-72
2023/04/28 00:53:12;;;;;;;6.20;3.30;;;;;;;21.75;41.74;102039.78;20992162;28;20052;-72
2023/04/28 01:03:14;;;;;;;10.35;3.72;;;;;;;21.83;42.11;102056.88;20998340;28;20078;-71
2023/04/28 01:13:18;;;;;;;15.75;3.60;;;;;;;21.82;42.20;102060.78;20987921;28;20500;-69
2023/04/28 01:23:19;;;;;;;15.10;4.05;;;;;;;21.88;42.64;102067.25;20987173;28;20044;-71
2023/04/28 01:33:21;;;;;;;7.40;3.30;;;;;;;21.79;43.00;102058.50;20974606;28;20032;-70
2023/04/28 01:43:22;;;;;;;15.45;4.10;;;;;;;21.94;42.99;102079.28;21001047;28;20040;-69
2023/04/28 01:53:23;;;;;;;7.15;3.70;;;;;;;21.86;42.83;102055.53;20992637;28;20044;-69
2023/04/28 02:03:26;;;;;;;6.30;3.75;;;;;;;21.93;43.36;102074.84;20999011;28;20044;-70
2023/04/28 02:13:30;;;;;;;10.02;3.90;;;;;;;21.96;43.29;102091.88;20967306;28;20036;-70
2023/04/28 02:23:32;;;;;;;10.70;3.50;;;;;;;21.96;42.91;102088.25;20980307;28;20043;-71
2023/04/28 02:33:33;;;;;;;9.07;4.03;;;;;;;21.92;42.98;102076.78;20981431;28;20074;-69
2023/04/28 02:43:36;;;;;;;12.68;4.05;;;;;;;21.99;43.18;102082.13;20999767;28;20123;-70
2023/04/28 02:53:37;;;;;;;9.38;3.55;;;;;;;22.00;43.16;102078.28;20967673;28;20047;-72
2023/04/28 03:03:38;;;;;;;8.20;4.07;;;;;;;21.82;43.67;102049.63;20993555;28;20671;-71
2023/04/28 03:13:40;;;;;;;9.48;3.67;;;;;;;21.87;43.95;102060.00;20985067;28;20047;-72
2023/04/28 03:23:41;;;;;;;6.13;3.58;;;;;;;22.02;43.91;102060.16;20978530;28;20040;-70
2023/04/28 03:33:44;;;;;;;11.73;4.38;;;;;;;22.03;44.18;102061.00;20975218;28;20040;-70
2023/04/28 03:43:45;;;;;;;8.13;4.00;;;;;;;21.92;43.63;102070.38;20996382;28;20044;-71
2023/04/28 03:53:47;;;;;;;7.85;4.57;;;;;;;22.04;43.70;102090.59;20987311;28;20037;-70
2023/04/28 04:03:48;;;;;;;11.63;4.53;;;;;;;22.07;43.27;102084.47;20984224;28;20036;-72
2023/04/28 04:13:50;;;;;;;7.30;3.90;;;;;;;22.08;43.71;102061.06;20977158;28;20032;-67
2023/04/28 04:23:51;;;;;;;10.65;4.07;;;;;;;22.06;43.43;102068.84;20990219;28;20130;-70
2023/04/28 04:33:55;;;;;;;11.48;3.83;;;;;;;22.07;43.46;102039.88;20987701;28;20560;-67
2023/04/28 04:43:57;;;;;;;10.60;3.60;;;;;;;21.97;44.04;102011.91;20993353;28;20036;-70
2023/04/28 04:54:01;;;;;;;14.77;3.80;;;;;;;22.08;44.13;102030.41;20969515;28;20373;-67
2023/04/28 05:04:02;;;;;;;15.55;4.82;;;;;;;21.96;44.29;101999.91;20982863;28;20075;-72
2023/04/28 05:14:03;;;;;;;14.77;5.82;;;;;;;22.07;44.43;102028.72;20941696;28;20400;-71
2023/04/28 05:24:05;;;;;;;12.65;4.63;;;;;;;22.10;44.04;102036.56;20994131;28;20044;-73
2023/04/28 05:34:06;;;;;;;15.90;4.60;;;;;;;22.07;44.11;102034.28;20988792;28;20104;-71
2023/04/28 05:44:11;;;;;;;12.48;4.32;;;;;;;21.90;43.76;101988.94;20981184;28;20040;-73
2023/04/28 05:54:27;;;;;;;12.45;4.82;;;;;;;21.97;43.73;101992.38;20976636;28;20090;-72
2023/04/28 06:04:29;;;;;;;10.98;4.18;;;;;;;21.88;43.64;101960.53;20981538;28;20086;-71
2023/04/28 06:14:31;;;;;;;8.98;3.65;;;;;;;22.07;43.27;101978.56;20976482;28;20037;-72
2023/04/28 06:24:32;;;;;;;12.05;4.53;;;;;;;22.08;43.08;101964.38;20991947;28;20101;-72
2023/04/28 06:34:37;;;;;;;9.65;3.97;;;;;;;21.96;43.21;101943.34;20999215;28;20484;-72
2023/04/28 06:44:38;;;;;;;8.38;3.65;;;;;;;22.04;43.29;101957.63;20999507;28;20083;-72
2023/04/28 06:54:39;;;;;;;8.60;3.90;;;;;;;21.99;43.00;101945.56;20991395;28;20041;-72
2023/04/28 07:04:41;;;;;;;8.10;4.30;;;;;;;;;;20978154;28;20144;-72
2023/04/28 07:14:45;;;;;;;7.15;3.53;;;;;;;21.98;42.75;101974.56;21004118;28;20036;-72
2023/04/28 07:24:46;;;;;;;7.40;3.85;;;;;;;21.50;42.86;101896.34;21035502;28;20499;-72
2023/04/28 07:34:48;;;;;;;6.50;3.63;;;;;;;21.70;42.53;101915.19;20981579;28;20098;-72
2023/04/28 07:44:49;;;;;;;6.85;3.85;;;;;;;21.91;42.81;101955.28;21004797;28;20090;-72
2023/04/28 07:54:50;;;;;;;7.18;3.28;;;;;;;21.36;42.66;101846.91;21043036;28;20055;-72
2023/04/28 08:04:52;;;;;;;5.35;2.60;;;;;;;21.85;42.75;101930.38;21085751;28;20055;-72
2023/04/28 08:14:56;;;;;;;7.50;3.67;;;;;;;21.83;42.89;101923.13;20999924;28;20048;-71
2023/04/28 08:24:57;;;;;;;3.97;2.45;;;;;;;21.79;42.73;101904.44;20999053;28;20056;-71
2023/04/28 08:35:02;;;;;;;5.45;2.45;;;;;;;21.87;42.68;101914.25;20990594;28;20036;-74
2023/04/28 08:45:04;;;;;;;4.32;2.42;;;;;;;21.86;42.79;101909.81;20992807;28;20553;-72
2023/04/28 08:55:08;;;;;;;3.97;2.38;;;;;;;21.85;42.58;101902.53;20947393;28;20106;-73
2023/04/28 09:05:13;;;;;;;4.93;2.92;;;;;;;21.83;42.44;101906.41;20904710;28;20495;-73
2023/04/28 09:15:33;;;;;;;2.85;2.45;;;;;;;21.60;42.45;101858.56;20912906;28;20049;-72
2023/04/28 09:25:34;;;;;;;4.85;2.63;;;;;;;21.79;42.37;101877.41;20900810;28;20037;-73
2023/04/28 09:35:40;;;;;;;4.63;2.50;;;;;;;21.81;42.55;101866.84;20911387;28;20340;-72
2023/04/28 09:45:41;;;;;;;2.97;2.10;;;;;;;21.54;42.43;101813.13;20903600;28;20079;-72
2023/04/28 09:55:45;;;;;;;4.47;2.80;;;;;;;21.52;43.28;101809.75;20931153;28;20032;-71
2023/04/28 10:05:48;;;;;;;3.70;2.33;;;;;;;21.55;43.18;101800.88;20982945;28;20548;-72
2023/04/28 10:15:53;;;;;;;6.88;3.20;;;;;;;21.78;43.02;101845.09;20991725;28;20048;-72
2023/04/28 10:26:01;;;;;;;4.28;2.88;;;;;;;21.75;42.58;101834.47;20980344;28;20102;-73
2023/04/28 10:36:03;;;;;;;3.67;2.33;;;;;;;21.70;41.97;101842.78;20992956;28;20114;-72
2023/04/28 10:46:08;;;;;;;4.60;2.97;;;;;;;21.70;41.94;101862.28;20994084;28;20029;-72
2023/04/28 10:56:25;;;;;;;7.85;3.55;;;;;;;21.65;41.98;101870.59;20964451;28;21019;-72
2023/04/28 11:06:33;;;;;;;6.57;2.95;;;;;;;21.66;41.64;101885.34;21001290;28;20056;-72
2023/04/28 11:16:50;;;;;;;6.73;3.57;;;;;;;21.48;41.83;101858.72;20972067;28;20037;-73
2023/04/28 11:26:52;;;;;;;8.57;3.88;;;;;;;21.63;41.83;101878.38;20995782;28;20105;-72
2023/04/28 11:36:56;;;;;;;11.18;3.50;;;;;;;21.52;42.33;101848.72;20999580;28;20032;-72
2023/04/28 11:47:05;;;;;;;6.72;3.17;;;;;;;21.66;42.58;101861.13;21001063;28;20036;-73
2023/04/28 11:57:06;;;;;;;7.25;3.10;;;;;;;21.67;42.79;101854.47;20984705;28;20441;-73
2023/04/28 12:07:15;;;;;;;8.02;3.70;;;;;;;21.64;42.47;101838.28;20988355;28;20511;-69
2023/04/28 12:17:37;;;;;;;9.40;3.17;;;;;;;21.55;42.50;101820.34;21001586;28;20044;-70
2023/04/28 12:27:39;;;;;;;8.68;3.53;;;;;;;21.67;42.41;101840.53;20989792;28;20040;-69
2023/04/28 12:37:44;;;;;;;7.10;3.70;;;;;;;21.53;41.73;101833.69;20987633;28;20041;-69
2023/04/28 12:47:46;;;;;;;10.23;3.55;;;;;;;21.70;41.69;101859.50;21000596;28;20049;-69
2023/04/28 12:57:47;;;;;;;7.43;3.50;;;;;;;21.67;41.57;101868.41;21000108;28;20075;-69
2023/04/28 13:07:49;;;;;;;9.27;3.60;;;;;;;21.67;42.25;101857.25;20924101;28;20052;-69
2023/04/28 13:17:51;;;;;;;8.55;3.13;;;;;;;21.64;42.66;101846.63;20912064;28;20099;-69
2023/04/28 13:27:52;;;;;;;9.68;4.43;;;;;;;21.68;42.39;101841.38;20914463;28;20041;-69
2023/04/28 13:38:00;;;;;;;12.07;5.10;;;;;;;21.69;42.53;101843.06;20984014;28;20028;-68
2023/04/28 13:48:02;;;;;;;10.93;5.77;;;;;;;21.68;42.46;101830.22;20995661;28;20063;-69
2023/04/28 13:58:04;;;;;;;12.35;6.70;;;;;;;21.61;42.77;101813.72;20995044;28;20346;-69
2023/04/28 14:08:09;;;;;;;28.30;6.78;;;;;;;21.67;42.67;101831.31;20994568;28;20048;-68
2023/04/28 14:18:13;;;;;;;29.83;7.28;;;;;;;21.63;42.78;101825.47;21076700;28;20093;-68
2023/04/28 14:28:15;;;;;;;15.93;5.88;;;;;;;21.62;42.65;101826.53;20970597;28;20049;-68
2023/04/28 14:38:16;;;;;;;14.13;6.13;;;;;;;21.59;42.65;101807.59;20992164;28;20067;-67
2023/04/28 14:48:18;;;;;;;14.38;5.97;;;;;;;21.58;42.61;101811.50;20998286;28;20048;-67
2023/04/28 14:58:20;;;;;;;16.27;5.53;;;;;;;21.58;42.31;101811.50;20988021;28;20036;-68
2023/04/28 15:08:21;;;;;;;12.85;6.13;;;;;;;21.55;42.24;101806.44;20997703;28;20057;-68
2023/04/28 15:18:23;;;;;;;9.43;5.03;;;;;;;21.49;41.98;101788.00;20995002;28;20039;-69
2023/04/28 15:28:26;;;;;;;18.27;5.15;;;;;;;20.73;42.28;101685.91;20993223;28;20105;-74
2023/04/28 15:38:30;;;;;;;14.32;5.03;;;;;;;20.75;42.59;101739.31;21008621;28;20059;-72
2023/04/28 15:48:34;;;;;;;14.95;4.53;;;;;;;21.06;42.94;101798.09;21008518;28;20118;-75
2023/04/28 15:58:36;;;;;;;9.32;4.20;;;;;;;20.99;43.14;101789.13;20944580;28;20385;-77
2023/04/28 16:08:44;;;;;;;6.80;3.85;;;;;;;21.05;43.18;101782.50;20997084;28;20052;-76
2023/04/28 16:18:45;;;;;;;8.73;4.15;;;;;;;21.05;42.77;101788.06;21009242;28;20479;-74
2023/04/28 16:28:50;;;;;;;8.88;4.13;;;;;;;21.00;44.13;101757.41;20985680;28;20365;-75
2023/04/28 16:38:51;;;;;;;15.38;4.75;;;;;;;21.27;44.22;101758.25;20955419;28;20037;-74
2023/04/28 16:48:52;;;;;;;12.48;4.32;;;;;;;21.42;43.55;101776.22;20916883;28;20045;-74
2023/04/28 16:58:57;;;;;;;12.98;4.70;;;;;;;21.47;45.16;101784.63;20973776;28;20044;-74
2023/04/28 17:08:58;;;;;;;10.63;5.18;;;;;;;21.48;47.36;101780.72;21004202;28;20075;-73
2023/04/28 17:19:01;;;;;;;10.80;5.10;;;;;;;21.54;49.67;101779.69;20995892;28;20040;-73
2023/04/28 17:29:03;;;;;;;11.13;5.13;;;;;;;21.37;49.31;101735.25;21004169;28;20446;-74
2023/04/28 17:39:05;;;;;;;8.32;4.68;;;;;;;21.61;49.75;101740.47;21001916;28;20070;-71
2023/04/28 17:49:06;;;;;;;10.93;5.15;;;;;;;21.40;49.47;101712.47;20982478;28;20041;-69
2023/04/28 17:59:07;;;;;;;12.95;4.93;;;;;;;21.50;48.80;101695.84;21000813;28;20040;-76
2023/04/28 18:09:09;;;;;;;16.55;5.18;;;;;;;21.42;48.51;101673.22;21009401;28;20036;-77
2023/04/28 18:19:10;;;;;;;11.20;4.88;;;;;;;21.55;47.78;101681.09;20975973;28;20037;-78
2023/04/28 18:29:14;;;;;;;13.27;4.35;;;;;;;21.30;46.89;101617.69;20909027;28;20629;-76
2023/04/28 18:39:17;;;;;;;14.85;4.53;;;;;;;21.57;46.73;101656.59;20910138;28;20044;-76
2023/04/28 18:49:18;;;;;;;10.10;4.50;;;;;;;21.54;46.29;101651.59;20910133;28;20044;-76
2023/04/28 18:59:20;;;;;;;7.88;3.95;;;;;;;21.52;46.46;101643.47;20909621;28;20048;-77
2023/04/28 19:09:21;;;;;;;11.05;4.28;;;;;;;21.48;46.21;101630.38;20921335;28;20041;-77
2023/04/28 19:19:23;;;;;;;4.90;3.58;;;;;;;21.26;45.92;101567.28;20924039;28;20098;-76
2023/04/28 19:29:24;;;;;;;7.32;3.80;;;;;;;21.41;45.92;101562.94;20924241;28;20036;-75
2023/04/28 19:39:25;;;;;;;6.93;3.75;;;;;;;21.31;45.75;101567.34;20922657;28;20115;-77
2023/04/28 19:49:27;;;;;;;5.18;3.33;;;;;;;20.97;45.32;101482.47;20922926;28;20036;-76
2023/04/28 19:59:28;;;;;;;6.25;3.67;;;;;;;21.33;45.20;101543.97;20920455;28;20040;-77
2023/04/28 20:09:31;;;;;;;5.78;3.35;;;;;;;21.26;44.99;101511.63;20921164;28;20472;-77
2023/04/28 20:19:33;;;;;;;4.22;3.28;;;;;;;21.31;44.85;101530.31;20919806;28;20087;-76
2023/04/28 20:29:35;;;;;;;5.32;3.10;;;;;;;20.65;44.98;101397.16;20918780;28;20044;-77
2023/04/28 20:39:37;;;;;;;5.53;3.63;;;;;;;21.25;44.60;101486.81;20918003;28;20392;-76
2023/04/28 20:49:38;;;;;;;4.03;3.03;;;;;;;21.23;44.91;101484.31;20912782;28;20067;-75
2023/04/28 20:59:40;;;;;;;4.00;2.90;;;;;;;21.20;44.78;101470.94;20916255;28;20496;-74
2023/04/28 21:09:41;;;;;;;6.90;3.13;;;;;;;21.21;44.38;101494.91;20915235;28;20106;-77
2023/04/28 21:19:43;;;;;;;4.75;3.00;;;;;;;21.24;44.38;101502.69;20914712;28;20048;-76
2023/04/28 21:29:47;;;;;;;5.57;2.90;;;;;;;21.15;44.00;101509.03;20913118;28;20095;-78
2023/04/28 21:39:48;;;;;;;3.38;2.60;;;;;;;21.20;44.11;101511.84;20913131;28;20091;-75
2023/04/28 21:49:50;;;;;;;3.30;2.78;;;;;;;21.18;44.03;101495.41;20913728;28;20051;-75
2023/04/28 21:59:54;;;;;;;4.10;3.10;;;;;;;21.22;44.09;101482.66;20912409;28;20041;-76
2023/04/28 22:09:58;;;;;;;3.17;2.80;;;;;;;21.22;43.91;101440.06;20911446;28;20044;-76
2023/04/28 22:20:00;;;;;;;5.72;3.22;;;;;;;21.16;43.69;101408.56;20893058;28;20091;-76
2023/04/28 22:30:01;;;;;;;4.63;2.42;;;;;;;21.14;43.54;101446.97;20909596;28;20398;-77
2023/04/28 22:40:05;;;;;;;5.50;2.83;;;;;;;21.04;43.70;101419.94;20909510;28;20372;-75
2023/04/28 22:50:11;;;;;;;4.10;2.78;;;;;;;21.10;43.65;101395.75;20909006;28;20045;-75
2023/04/28 23:00:14;;;;;;;4.00;2.75;;;;;;;21.11;43.53;101393.78;20909155;28;20404;-78
2023/04/28 23:10:21;;;;;;;3.20;2.47;;;;;;;20.91;43.37;101366.72;20921520;28;20071;-75
2023/04/28 23:20:22;;;;;;;4.60;2.85;;;;;;;20.96;43.53;101358.41;20945014;28;20041;-74
2023/04/28 23:30:24;;;;;;;3.58;3.28;;;;;;;21.09;43.40;101382.94;20983146;28;20044;-74
2023/04/28 23:40:25;;;;;;;4.38;2.90;;;;;;;21.08;44.25;101375.72;20989945;28;20036;-74
2023/04/28 23:50:33;;;;;;;3.58;2.90;;;;;;;20.99;44.17;101377.34;20922276;28;20049;-74
